Terminal Aerodrome Forecast
Issued by NWS

Home | Current Version | Previous Version | Graphics & Text | Print | Product List | Glossary On
Versions: 1 2 3 4 5 6 7 8 9 10 11 12 13 14 15 16
000
FTUS43 KICT 010857 AAA
TAFCNU
TAF AMD
KCNU 010857Z 0109/0206 22009KT 2SM -RA BR BKN003 OVC009
     FM011400 32016G23KT P6SM SCT009 OVC015
     FM011600 33020G28KT P6SM OVC025
     FM020100 33015G22KT P6SM BKN035=

USA.gov is the U.S. government's official web portal to all federal, state and local government web resources and services.